Time;durP1;ratioP1;P1;durP2;ratioP2;P2;SDS_P1;SDS_P2;PMS_P1;PMS_P2;Temp;Humidity;BMP_temperature;BMP_pressure;BME280_temperature;BME280_humidity;BME280_pressure;Samples;Min_cycle;Max_cycle;Signal;HPM_P1;HPM_P2
2022/05/06 00:01:04;;;;;;;16.58;13.00;;;;;;;;;;6251652;28;20059;-65
2022/05/06 00:04:07;;;;;;;17.48;13.52;;;;;;;;;;6250187;28;20056;-65
2022/05/06 00:07:11;;;;;;;19.67;13.32;;;;;;;;;;6248461;28;20050;-65
2022/05/06 00:10:14;;;;;;;18.35;13.85;;;;;;;;;;6250458;28;20099;-65
2022/05/06 00:13:15;;;;;;;18.48;14.02;;;;;;;;;;6246051;28;20061;-65
2022/05/06 00:16:18;;;;;;;18.58;13.77;;;;;;;;;;6241742;28;20045;-65
2022/05/06 00:19:20;;;;;;;19.85;14.32;;;;;;;;;;6246113;28;20406;-66
2022/05/06 00:22:23;;;;;;;18.10;14.10;;;;;;;;;;6248497;28;20084;-65
2022/05/06 00:25:24;;;;;;;18.98;14.10;;;;;;;;;;6249862;28;20075;-65
2022/05/06 00:28:26;;;;;;;19.20;13.75;;;;;;;;;;6252706;28;20099;-65
2022/05/06 00:31:27;;;;;;;18.15;13.73;;;;;;;;;;6250952;28;20284;-64
2022/05/06 00:34:29;;;;;;;17.08;13.40;;;;;;;;;;6251733;28;20049;-65
2022/05/06 00:37:32;;;;;;;17.75;13.30;;;;;;;;;;6247517;28;20053;-64
2022/05/06 00:40:34;;;;;;;17.20;13.60;;;;;;;;;;6248833;28;20060;-64
2022/05/06 00:43:39;;;;;;;19.92;14.32;;;;;;;;;;6247576;28;20049;-65
2022/05/06 00:46:41;;;;;;;17.55;13.20;;;;;;;;;;6247747;28;20618;-65
2022/05/06 00:49:43;;;;;;;17.20;13.38;;;;;;;;;;6248487;28;20046;-65
2022/05/06 00:52:46;;;;;;;17.05;12.82;;;;;;;;;;6248913;28;20053;-65
2022/05/06 00:55:49;;;;;;;16.65;13.02;;;;;;;;;;6252673;28;20053;-65
2022/05/06 00:58:50;;;;;;;17.08;12.95;;;;;;;;;;6252469;28;20041;-65
2022/05/06 01:01:52;;;;;;;16.30;11.30;;;;;;;;;;6252538;28;20053;-65
2022/05/06 01:04:53;;;;;;;14.32;11.65;;;;;;;;;;6251150;28;20045;-65
2022/05/06 01:07:58;;;;;;;16.20;12.27;;;;;;;;;;6252277;28;20053;-65
2022/05/06 01:10:59;;;;;;;16.00;12.05;;;;;;;;;;6250702;28;20053;-65
2022/05/06 01:14:02;;;;;;;15.05;11.35;;;;;;;;;;6254827;28;20099;-65
2022/05/06 01:17:04;;;;;;;15.27;11.23;;;;;;;;;;6253345;28;20329;-65
2022/05/06 01:20:06;;;;;;;16.38;11.07;;;;;;;;;;6251475;28;20046;-65
2022/05/06 01:23:09;;;;;;;15.32;11.30;;;;;;;;;;6252820;28;20213;-65
2022/05/06 01:26:11;;;;;;;15.43;11.57;;;;;;;;;;6253580;28;20064;-65
2022/05/06 01:29:13;;;;;;;14.70;12.02;;;;;;;;;;6250596;28;20312;-65
2022/05/06 01:32:17;;;;;;;17.77;12.15;;;;;;;;;;6248853;28;20053;-65
2022/05/06 01:35:19;;;;;;;;;;;;;;;;;;6250703;28;20057;-65
2022/05/06 01:38:26;;;;;;;13.77;10.13;;;;;;;;;;6250440;28;19970;-63
2022/05/06 01:41:31;;;;;;;14.82;9.88;;;;;;;;;;6251388;28;20108;-64
2022/05/06 01:44:43;;;;;;;11.95;9.95;;;;;;;;;;6250906;28;20377;-64
2022/05/06 01:47:44;;;;;;;15.30;10.73;;;;;;;;;;6249772;28;20311;-64
2022/05/06 01:50:46;;;;;;;14.63;9.27;;;;;;;;;;6251719;28;20046;-64
2022/05/06 01:53:49;;;;;;;11.20;8.93;;;;;;;;;;6250886;28;20060;-64
2022/05/06 01:56:51;;;;;;;13.35;9.60;;;;;;;;;;6250595;28;20390;-64
2022/05/06 01:59:53;;;;;;;10.38;8.60;;;;;;;;;;6245528;28;20065;-64
2022/05/06 02:02:56;;;;;;;15.13;9.68;;;;;;;;;;6245267;28;20053;-64
2022/05/06 02:05:57;;;;;;;11.53;9.17;;;;;;;;;;6247336;28;20050;-64
2022/05/06 02:09:00;;;;;;;11.48;8.77;;;;;;;;;;6255456;28;20328;-64
2022/05/06 02:12:01;;;;;;;13.88;9.27;;;;;;;;;;6245337;28;20057;-64
2022/05/06 02:15:03;;;;;;;12.63;9.13;;;;;;;;;;6249292;28;20053;-64
2022/05/06 02:18:05;;;;;;;12.55;9.27;;;;;;;;;;6251420;28;20061;-64
2022/05/06 02:21:07;;;;;;;11.45;9.25;;;;;;;;;;6245907;28;20045;-64
2022/05/06 02:24:11;;;;;;;11.02;9.18;;;;;;;;;;6243794;28;20069;-64
2022/05/06 02:27:12;;;;;;;13.60;9.98;;;;;;;;;;6251432;28;20045;-65
2022/05/06 02:33:43;;;;;;;13.38;10.50;;;;;;;;;;6178592;28;20105;-64
2022/05/06 02:36:44;;;;;;;16.63;10.32;;;;;;;;;;6181779;28;20413;-65
2022/05/06 02:39:47;;;;;;;13.10;10.25;;;;;;;;;;6177265;28;20054;-65
2022/05/06 02:42:49;;;;;;;13.98;10.35;;;;;;;;;;6177080;28;20400;-65
2022/05/06 02:45:51;;;;;;;16.40;10.25;;;;;;;;;;6179310;28;20066;-65
2022/05/06 02:48:52;;;;;;;14.80;10.27;;;;;;;;;;6179301;28;20325;-64
2022/05/06 02:51:54;;;;;;;12.45;10.00;;;;;;;;;;6173195;28;20055;-64
2022/05/06 02:54:57;;;;;;;13.40;10.35;;;;;;;;;;6174296;28;20500;-64
2022/05/06 02:57:59;;;;;;;15.07;10.50;;;;;;;;;;6175420;28;20058;-64
2022/05/06 03:01:00;;;;;;;12.55;9.65;;;;;;;;;;6176183;28;20126;-64
2022/05/06 03:04:02;;;;;;;13.10;9.68;;;;;;;;;;6176833;28;20086;-65
2022/05/06 03:07:06;;;;;;;13.88;9.75;;;;;;;;;;6177675;28;20108;-64
2022/05/06 03:10:10;;;;;;;13.88;10.75;;;;;;;;;;6237320;28;20112;-65
2022/05/06 03:13:12;;;;;;;;;;;;;;;;;;6250228;28;20061;-64
2022/05/06 03:16:13;;;;;;;13.68;10.63;;;;;;;;;;6248567;28;19940;-64
2022/05/06 03:19:15;;;;;;;13.35;10.27;;;;;;;;;;6227234;28;20065;-65
2022/05/06 03:22:18;;;;;;;13.35;10.23;;;;;;;;;;6250513;28;20045;-65
2022/05/06 03:25:21;;;;;;;15.32;11.73;;;;;;;;;;6246223;28;20148;-65
2022/05/06 03:28:23;;;;;;;14.45;11.20;;;;;;;;;;6249730;28;20041;-65
2022/05/06 03:31:26;;;;;;;16.05;11.43;;;;;;;;;;6246178;28;20061;-65
2022/05/06 03:34:28;;;;;;;15.68;11.48;;;;;;;;;;6248876;28;20058;-64
2022/05/06 03:37:29;;;;;;;14.27;10.52;;;;;;;;;;6250802;28;20096;-65
2022/05/06 03:40:33;;;;;;;15.48;11.70;;;;;;;;;;6247616;28;20333;-66
2022/05/06 03:43:34;;;;;;;16.55;12.30;;;;;;;;;;6248629;28;20058;-66
2022/05/06 03:46:36;;;;;;;19.70;13.27;;;;;;;;;;6247009;28;20233;-65
2022/05/06 03:49:38;;;;;;;17.35;12.95;;;;;;;;;;6247110;28;20057;-65
2022/05/06 03:52:38;;;;;;;17.75;12.40;;;;;;;;;;6248800;28;20352;-65
2022/05/06 03:55:42;;;;;;;18.90;13.07;;;;;;;;;;6249607;28;20103;-65
2022/05/06 03:58:44;;;;;;;19.70;13.35;;;;;;;;;;6246924;28;20046;-65
2022/05/06 04:01:46;;;;;;;16.58;12.20;;;;;;;;;;6246587;28;20124;-64
2022/05/06 04:04:47;;;;;;;18.63;13.93;;;;;;;;;;6246754;28;20057;-65
2022/05/06 04:07:49;;;;;;;21.83;14.27;;;;;;;;;;6249022;28;20060;-64
2022/05/06 04:10:52;;;;;;;18.65;13.90;;;;;;;;;;6246475;28;20056;-65
2022/05/06 04:13:54;;;;;;;19.13;13.98;;;;;;;;;;6242980;28;20123;-64
2022/05/06 04:16:55;;;;;;;17.67;13.50;;;;;;;;;;6251664;28;20049;-65
2022/05/06 04:23:32;;;;;;;19.73;13.85;;;;;;;;;;6248564;28;20239;-65
2022/05/06 04:26:35;;;;;;;16.98;12.70;;;;;;;;;;6246538;28;20316;-65
2022/05/06 04:29:36;;;;;;;18.20;12.55;;;;;;;;;;6240040;28;20105;-64
2022/05/06 04:32:38;;;;;;;16.88;12.57;;;;;;;;;;6245326;28;20095;-65
2022/05/06 04:35:40;;;;;;;16.30;12.32;;;;;;;;;;6245512;28;20128;-65
2022/05/06 04:38:42;;;;;;;16.52;12.25;;;;;;;;;;6241995;28;20108;-65
2022/05/06 04:41:47;;;;;;;16.35;11.75;;;;;;;;;;6243761;28;20099;-66
2022/05/06 04:44:49;;;;;;;16.65;12.07;;;;;;;;;;6245762;28;20071;-65
2022/05/06 04:47:50;;;;;;;15.73;12.02;;;;;;;;;;6254638;28;20239;-65
2022/05/06 04:50:52;;;;;;;15.90;12.65;;;;;;;;;;6252098;28;20045;-65
2022/05/06 04:53:55;;;;;;;15.68;12.20;;;;;;;;;;6242057;28;20053;-65
2022/05/06 04:56:58;;;;;;;16.02;11.68;;;;;;;;;;6249000;28;20053;-65
2022/05/06 04:59:59;;;;;;;15.70;11.45;;;;;;;;;;6245977;28;20054;-66
2022/05/06 05:03:02;;;;;;;14.20;10.85;;;;;;;;;;6247663;28;20081;-65
2022/05/06 05:06:05;;;;;;;14.77;11.55;;;;;;;;;;6248029;28;20058;-65
2022/05/06 05:09:07;;;;;;;14.90;10.97;;;;;;;;;;6249854;28;20295;-65
2022/05/06 05:12:11;;;;;;;14.32;11.23;;;;;;;;;;6250870;28;20447;-65
2022/05/06 05:15:13;;;;;;;13.75;10.95;;;;;;;;;;6249149;28;20045;-65
2022/05/06 05:18:14;;;;;;;14.48;9.73;;;;;;;;;;6248963;28;20049;-66
2022/05/06 05:21:16;;;;;;;14.30;10.95;;;;;;;;;;6249872;28;20115;-66
2022/05/06 05:24:17;;;;;;;13.15;10.10;;;;;;;;;;6249392;28;20049;-66
2022/05/06 05:27:21;;;;;;;14.38;10.50;;;;;;;;;;6248291;28;20061;-65
2022/05/06 05:30:23;;;;;;;12.30;10.07;;;;;;;;;;6245967;28;20113;-66
2022/05/06 05:33:24;;;;;;;15.82;10.20;;;;;;;;;;6247383;28;20116;-66
2022/05/06 05:36:26;;;;;;;11.70;9.63;;;;;;;;;;6245878;28;20049;-66
2022/05/06 05:39:28;;;;;;;14.05;10.27;;;;;;;;;;6250315;28;20057;-66
2022/05/06 05:42:31;;;;;;;12.98;10.05;;;;;;;;;;6252666;28;20268;-65
2022/05/06 05:48:57;;;;;;;12.88;9.90;;;;;;;;;;6177966;28;20093;-66
2022/05/06 05:51:59;;;;;;;11.75;9.43;;;;;;;;;;6174455;28;20354;-64
2022/05/06 05:55:00;;;;;;;12.23;10.10;;;;;;;;;;6170320;28;20097;-66
2022/05/06 05:58:03;;;;;;;12.10;10.07;;;;;;;;;;6174345;28;20042;-65
2022/05/06 06:01:05;;;;;;;12.70;9.90;;;;;;;;;;6174047;28;20071;-65
2022/05/06 06:04:07;;;;;;;11.68;9.98;;;;;;;;;;6171634;28;20058;-65
2022/05/06 06:07:08;;;;;;;10.30;9.07;;;;;;;;;;6167865;28;20271;-65
2022/05/06 06:10:10;;;;;;;11.55;9.52;;;;;;;;;;6174253;28;20055;-65
2022/05/06 06:13:13;;;;;;;12.65;9.38;;;;;;;;;;6176063;28;20051;-65
2022/05/06 06:16:16;;;;;;;12.50;10.25;;;;;;;;;;6173705;28;20058;-66
2022/05/06 06:19:18;;;;;;;13.90;11.88;;;;;;;;;;6149991;28;20066;-66
2022/05/06 06:22:20;;;;;;;13.55;11.23;;;;;;;;;;6175054;28;20058;-66
2022/05/06 06:25:22;;;;;;;13.70;11.23;;;;;;;;;;6211941;28;20072;-66
2022/05/06 06:28:25;;;;;;;12.68;10.38;;;;;;;;;;6244404;28;20049;-65
2022/05/06 06:31:30;;;;;;;11.33;9.67;;;;;;;;;;6243638;28;20084;-65
2022/05/06 06:34:32;;;;;;;13.43;9.27;;;;;;;;;;6245444;28;20382;-65
2022/05/06 06:37:33;;;;;;;11.63;8.73;;;;;;;;;;6248728;28;20057;-65
2022/05/06 06:40:35;;;;;;;14.68;9.20;;;;;;;;;;6245428;28;20050;-65
2022/05/06 06:43:38;;;;;;;11.50;9.05;;;;;;;;;;6245725;28;20054;-63
2022/05/06 06:46:40;;;;;;;12.20;8.43;;;;;;;;;;6246420;28;20092;-64
2022/05/06 06:49:41;;;;;;;10.35;8.55;;;;;;;;;;6246261;28;20345;-67
2022/05/06 06:52:43;;;;;;;10.70;9.00;;;;;;;;;;6246656;28;20275;-66
2022/05/06 06:55:45;;;;;;;12.50;9.40;;;;;;;;;;6245231;28;20049;-67
2022/05/06 06:58:48;;;;;;;11.00;9.40;;;;;;;;;;6246273;28;20046;-67
2022/05/06 07:01:49;;;;;;;12.55;9.50;;;;;;;;;;6250952;28;20057;-65
2022/05/06 07:04:51;;;;;;;10.82;9.23;;;;;;;;;;6247595;28;20252;-65
2022/05/06 07:14:35;;;;;;;10.05;8.23;;;;;;;;;;6242764;28;20073;-65
2022/05/06 07:17:37;;;;;;;10.10;8.57;;;;;;;;;;6244610;28;20058;-66
2022/05/06 07:20:39;;;;;;;10.48;9.18;;;;;;;;;;6243762;28;20054;-65
2022/05/06 07:23:40;;;;;;;13.60;9.68;;;;;;;;;;6247690;28;20049;-66
2022/05/06 07:26:42;;;;;;;10.73;9.10;;;;;;;;;;6248339;28;20496;-65
2022/05/06 07:29:45;;;;;;;12.38;9.57;;;;;;;;;;6254534;28;20115;-65
2022/05/06 07:32:46;;;;;;;12.32;10.00;;;;;;;;;;6244600;28;20213;-64
2022/05/06 07:35:48;;;;;;;14.23;10.30;;;;;;;;;;6250546;28;20111;-65
2022/05/06 07:38:50;;;;;;;13.82;10.93;;;;;;;;;;6249664;28;20127;-65
2022/05/06 07:41:51;;;;;;;13.23;10.93;;;;;;;;;;6249543;28;20076;-65
2022/05/06 07:44:54;;;;;;;15.00;12.07;;;;;;;;;;6247492;28;20048;-65
2022/05/06 07:47:56;;;;;;;17.43;13.27;;;;;;;;;;6248173;28;20053;-65
2022/05/06 07:50:58;;;;;;;16.60;12.23;;;;;;;;;;6246177;28;20053;-75
2022/05/06 07:54:00;;;;;;;20.50;12.30;;;;;;;;;;6248861;28;20341;-67
2022/05/06 07:57:02;;;;;;;16.02;12.20;;;;;;;;;;6250948;28;20392;-67
2022/05/06 08:00:07;;;;;;;14.77;11.68;;;;;;;;;;6249372;28;20325;-68
2022/05/06 08:06:29;;;;;;;16.13;11.50;;;;;;;;;;6249418;28;20061;-67
2022/05/06 08:09:30;;;;;;;13.70;10.73;;;;;;;;;;6248665;28;20252;-67
2022/05/06 08:12:32;;;;;;;12.27;10.02;;;;;;;;;;6243635;28;20087;-67
2022/05/06 08:15:35;;;;;;;13.43;10.38;;;;;;;;;;6248810;28;20107;-67
2022/05/06 08:18:37;;;;;;;11.38;9.70;;;;;;;;;;6244379;28;20053;-67
2022/05/06 08:21:39;;;;;;;10.73;9.10;;;;;;;;;;6249185;28;20352;-68
2022/05/06 08:24:41;;;;;;;10.68;8.02;;;;;;;;;;6245439;28;20049;-67
2022/05/06 08:27:45;;;;;;;12.75;9.02;;;;;;;;;;6247697;28;20127;-68
2022/05/06 08:30:48;;;;;;;11.68;9.95;;;;;;;;;;6246806;28;20054;-68
2022/05/06 08:33:50;;;;;;;13.30;9.13;;;;;;;;;;6245938;28;20065;-69
2022/05/06 08:36:51;;;;;;;12.35;9.65;;;;;;;;;;6245828;28;20458;-67
2022/05/06 08:39:53;;;;;;;11.20;9.05;;;;;;;;;;6244422;28;20046;-68
2022/05/06 08:42:55;;;;;;;13.27;9.68;;;;;;;;;;6242178;28;20100;-68
2022/05/06 08:52:43;;;;;;;9.77;8.50;;;;;;;;;;6244510;28;20360;-68
2022/05/06 08:55:44;;;;;;;9.25;8.07;;;;;;;;;;6246763;28;20053;-68
2022/05/06 08:58:46;;;;;;;10.70;8.13;;;;;;;;;;6246572;28;20045;-67
2022/05/06 09:01:49;;;;;;;11.50;8.02;;;;;;;;;;6243234;28;20050;-66
2022/05/06 09:04:50;;;;;;;9.23;8.23;;;;;;;;;;6241605;28;20041;-67
2022/05/06 09:07:56;;;;;;;11.40;8.40;;;;;;;;;;6239668;28;20115;-67
2022/05/06 09:11:04;;;;;;;9.63;7.88;;;;;;;;;;6241556;28;20056;-67
2022/05/06 09:14:05;;;;;;;9.50;8.02;;;;;;;;;;6243708;28;20101;-68
2022/05/06 09:17:18;;;;;;;9.50;7.68;;;;;;;;;;6252087;28;20045;-68
2022/05/06 09:20:20;;;;;;;10.35;8.52;;;;;;;;;;6252341;28;20096;-67
2022/05/06 09:23:24;;;;;;;10.88;8.20;;;;;;;;;;6246200;28;20084;-68
2022/05/06 09:26:27;;;;;;;9.95;7.97;;;;;;;;;;6247594;28;20117;-68
2022/05/06 09:29:31;;;;;;;10.53;9.37;;;;;;;;;;6248107;28;20066;-67
2022/05/06 09:32:34;;;;;;;11.75;9.32;;;;;;;;;;6245070;28;20383;-68
2022/05/06 09:35:35;;;;;;;10.82;9.43;;;;;;;;;;6244421;28;20053;-68
2022/05/06 09:38:37;;;;;;;10.63;8.55;;;;;;;;;;6243315;28;20107;-68
2022/05/06 09:41:39;;;;;;;10.98;9.48;;;;;;;;;;6248335;28;20058;-68
2022/05/06 09:44:48;;;;;;;10.07;8.88;;;;;;;;;;6248069;28;20367;-68
2022/05/06 09:47:57;;;;;;;12.63;9.68;;;;;;;;;;6250757;28;20272;-68
2022/05/06 09:51:00;;;;;;;11.95;9.25;;;;;;;;;;6250437;28;20061;-67
2022/05/06 09:54:03;;;;;;;13.60;9.45;;;;;;;;;;6253168;28;20122;-68
2022/05/06 09:57:06;;;;;;;10.85;8.48;;;;;;;;;;6249682;28;20057;-68
2022/05/06 10:00:08;;;;;;;12.27;8.55;;;;;;;;;;6253028;28;20058;-68
2022/05/06 10:03:12;;;;;;;10.48;8.38;;;;;;;;;;6255796;28;20328;-68
2022/05/06 10:06:13;;;;;;;13.23;8.57;;;;;;;;;;6242651;28;20050;-67
2022/05/06 10:09:18;;;;;;;11.57;7.90;;;;;;;;;;6255004;28;20038;-68
2022/05/06 10:12:21;;;;;;;9.80;8.65;;;;;;;;;;6252175;28;20325;-67
2022/05/06 10:15:25;;;;;;;9.25;8.05;;;;;;;;;;6255277;28;20129;-68
2022/05/06 10:18:35;;;;;;;10.65;8.35;;;;;;;;;;6253656;28;20355;-68
2022/05/06 10:21:50;;;;;;;10.43;8.25;;;;;;;;;;6251975;28;20053;-68
2022/05/06 10:24:53;;;;;;;10.27;7.85;;;;;;;;;;6250777;28;20104;-68
2022/05/06 10:35:12;;;;;;;9.50;8.25;;;;;;;;;;6253596;28;20066;-68
2022/05/06 10:38:19;;;;;;;12.75;8.73;;;;;;;;;;6250895;28;20063;-67
2022/05/06 10:41:24;;;;;;;9.00;7.43;;;;;;;;;;6251024;28;20053;-67
2022/05/06 10:44:39;;;;;;;9.35;7.57;;;;;;;;;;6251061;28;20053;-68
2022/05/06 10:47:51;;;;;;;12.73;8.75;;;;;;;;;;6251716;28;20057;-67
2022/05/06 10:50:54;;;;;;;11.63;8.27;;;;;;;;;;6248080;28;20049;-69
2022/05/06 10:53:55;;;;;;;8.63;6.93;;;;;;;;;;6248565;28;20243;-67
2022/05/06 10:57:05;;;;;;;7.05;6.32;;;;;;;;;;6244234;28;20046;-67
2022/05/06 11:00:08;;;;;;;6.50;5.88;;;;;;;;;;6247821;28;20053;-68
2022/05/06 11:03:10;;;;;;;7.45;6.65;;;;;;;;;;6250012;28;20092;-68
2022/05/06 11:06:21;;;;;;;7.38;6.38;;;;;;;;;;6248090;28;20045;-69
2022/05/06 11:09:30;;;;;;;8.15;5.57;;;;;;;;;;6248845;28;20050;-69
2022/05/06 11:12:33;;;;;;;6.47;4.97;;;;;;;;;;6249474;28;20375;-68
2022/05/06 11:15:36;;;;;;;6.93;5.43;;;;;;;;;;6250888;28;20121;-70
2022/05/06 11:18:43;;;;;;;6.40;4.88;;;;;;;;;;6249243;28;20053;-68
2022/05/06 11:21:46;;;;;;;8.80;5.88;;;;;;;;;;6246716;28;20056;-68
2022/05/06 11:24:48;;;;;;;5.97;5.37;;;;;;;;;;6242793;28;20100;-68
2022/05/06 11:27:50;;;;;;;6.70;5.75;;;;;;;;;;6250960;28;20056;-69
2022/05/06 11:30:53;;;;;;;6.90;5.82;;;;;;;;;;6252145;28;20272;-69
2022/05/06 11:33:57;;;;;;;7.25;5.70;;;;;;;;;;6248941;28;20064;-69
2022/05/06 11:37:00;;;;;;;9.13;6.32;;;;;;;;;;6251781;28;20111;-68
2022/05/06 11:43:22;;;;;;;7.57;6.38;;;;;;;;;;6247133;28;20086;-68
2022/05/06 11:49:46;;;;;;;8.00;7.18;;;;;;;;;;6243259;28;20050;-66
2022/05/06 11:52:49;;;;;;;9.48;6.78;;;;;;;;;;6242852;28;20088;-68
2022/05/06 11:55:50;;;;;;;12.03;6.93;;;;;;;;;;6250181;28;20050;-68
2022/05/06 11:58:52;;;;;;;9.63;6.80;;;;;;;;;;6252641;28;20445;-68
2022/05/06 12:01:54;;;;;;;9.25;7.00;;;;;;;;;;6243687;28;20081;-69
2022/05/06 12:04:56;;;;;;;9.80;7.72;;;;;;;;;;6247957;28;20084;-68
2022/05/06 12:07:59;;;;;;;8.57;6.90;;;;;;;;;;6242437;28;20061;-68
2022/05/06 12:11:02;;;;;;;8.00;6.90;;;;;;;;;;6244422;28;20057;-68
2022/05/06 12:14:07;;;;;;;;;;;;;;;;;;6242899;28;20060;-67
2022/05/06 12:17:11;;;;;;;9.88;6.88;;;;;;;;;;6244152;28;20242;-68
2022/05/06 12:20:27;;;;;;;;;;;;;;;;;;6253986;28;20235;-68
2022/05/06 12:23:31;;;;;;;8.80;6.97;;;;;;;;;;6250528;28;19924;-68
2022/05/06 12:26:37;;;;;;;8.15;7.00;;;;;;;;;;6246665;28;20057;-66
2022/05/06 12:29:40;;;;;;;7.10;6.10;;;;;;;;;;6251773;28;20050;-66
2022/05/06 12:32:42;;;;;;;7.88;6.75;;;;;;;;;;6248681;28;20058;-68
2022/05/06 12:35:57;;;;;;;7.93;6.90;;;;;;;;;;6247237;28;20058;-68
2022/05/06 12:39:00;;;;;;;8.27;7.43;;;;;;;;;;6249934;28;20045;-69
2022/05/06 12:42:12;;;;;;;8.40;7.07;;;;;;;;;;6248012;28;20391;-70
2022/05/06 12:45:14;;;;;;;9.18;7.60;;;;;;;;;;6252091;28;20049;-68
2022/05/06 12:51:35;;;;;;;9.93;7.35;;;;;;;;;;6254297;28;20053;-66
2022/05/06 12:54:39;;;;;;;9.52;7.70;;;;;;;;;;6256993;28;20061;-75
2022/05/06 12:57:41;;;;;;;10.27;7.90;;;;;;;;;;6254835;28;20187;-67
2022/05/06 13:00:42;;;;;;;9.02;7.05;;;;;;;;;;6252566;28;20321;-67
2022/05/06 13:03:44;;;;;;;8.70;6.82;;;;;;;;;;6252096;28;20053;-67
2022/05/06 13:06:46;;;;;;;8.68;7.20;;;;;;;;;;6251123;28;20052;-67
2022/05/06 13:09:49;;;;;;;8.63;7.70;;;;;;;;;;6247366;28;20333;-67
2022/05/06 13:12:51;;;;;;;10.40;8.50;;;;;;;;;;6249021;28;20042;-67
2022/05/06 13:15:53;;;;;;;12.75;9.50;;;;;;;;;;6254792;28;20344;-67
2022/05/06 13:18:54;;;;;;;13.88;10.05;;;;;;;;;;6253993;28;20320;-68
2022/05/06 13:21:56;;;;;;;13.23;11.15;;;;;;;;;;6248425;28;20049;-67
2022/05/06 13:24:59;;;;;;;13.07;11.25;;;;;;;;;;6251768;28;20116;-67
2022/05/06 13:28:00;;;;;;;16.25;11.98;;;;;;;;;;6249845;28;20104;-67
2022/05/06 13:31:02;;;;;;;13.38;11.52;;;;;;;;;;6249068;28;20049;-68
2022/05/06 13:34:03;;;;;;;15.32;12.40;;;;;;;;;;6249553;28;20284;-67
2022/05/06 13:37:05;;;;;;;14.15;11.55;;;;;;;;;;6250021;28;20430;-67
2022/05/06 13:40:09;;;;;;;14.90;11.95;;;;;;;;;;6248333;28;20069;-67
2022/05/06 13:43:11;;;;;;;15.65;11.90;;;;;;;;;;6252151;28;20208;-67
2022/05/06 13:46:12;;;;;;;15.07;11.73;;;;;;;;;;6251016;28;20061;-66
2022/05/06 13:49:14;;;;;;;17.23;12.43;;;;;;;;;;6254365;28;20221;-67
2022/05/06 13:52:17;;;;;;;15.57;12.18;;;;;;;;;;6257255;28;20115;-67
2022/05/06 13:55:20;;;;;;;17.38;14.20;;;;;;;;;;6252871;28;20050;-67
2022/05/06 14:01:42;;;;;;;19.45;13.82;;;;;;;;;;6254994;28;20053;-68
2022/05/06 14:04:45;;;;;;;18.23;13.63;;;;;;;;;;6250598;28;20049;-68
2022/05/06 14:07:47;;;;;;;14.87;12.60;;;;;;;;;;6253511;28;20057;-68
2022/05/06 14:10:50;;;;;;;14.48;10.85;;;;;;;;;;6259650;28;20041;-68
2022/05/06 14:13:53;;;;;;;12.32;11.00;;;;;;;;;;6257452;28;20053;-69
2022/05/06 14:16:55;;;;;;;13.25;11.35;;;;;;;;;;6254884;28;20041;-69
2022/05/06 14:19:57;;;;;;;14.13;9.93;;;;;;;;;;6255629;28;20271;-68
2022/05/06 14:22:59;;;;;;;14.70;9.13;;;;;;;;;;6251677;28;20089;-68
2022/05/06 14:26:07;;;;;;;10.00;8.95;;;;;;;;;;6254199;28;20119;-68
2022/05/06 14:29:08;;;;;;;10.52;8.95;;;;;;;;;;6249224;28;20147;-68
2022/05/06 14:32:13;;;;;;;12.27;9.48;;;;;;;;;;6245999;28;20045;-69
2022/05/06 14:35:23;;;;;;;11.98;7.95;;;;;;;;;;6252211;28;20119;-68
2022/05/06 14:38:25;;;;;;;8.15;6.90;;;;;;;;;;6251497;28;20071;-68
2022/05/06 14:41:30;;;;;;;8.63;7.05;;;;;;;;;;6250602;28;20287;-68
2022/05/06 14:44:31;;;;;;;9.43;7.25;;;;;;;;;;6251511;28;20068;-68
2022/05/06 14:47:33;;;;;;;9.55;7.63;;;;;;;;;;6248960;28;20045;-68
2022/05/06 14:50:35;;;;;;;10.63;8.25;;;;;;;;;;6250613;28;20060;-68
2022/05/06 14:53:36;;;;;;;10.60;8.52;;;;;;;;;;6247703;28;20372;-67
2022/05/06 14:56:39;;;;;;;10.43;8.65;;;;;;;;;;6248710;28;20058;-68
2022/05/06 14:59:41;;;;;;;7.43;6.55;;;;;;;;;;6253693;28;20084;-68
2022/05/06 15:02:42;;;;;;;6.00;5.32;;;;;;;;;;6255967;28;20115;-68
2022/05/06 15:05:44;;;;;;;6.20;5.03;;;;;;;;;;6254948;28;20061;-67
2022/05/06 15:08:46;;;;;;;7.50;6.05;;;;;;;;;;6253509;28;20057;-68
2022/05/06 15:11:49;;;;;;;7.32;6.22;;;;;;;;;;6251090;28;20096;-68
2022/05/06 15:14:51;;;;;;;8.98;6.60;;;;;;;;;;6248179;28;20292;-68
2022/05/06 15:17:53;;;;;;;8.25;7.30;;;;;;;;;;6246010;28;20130;-67
2022/05/06 15:20:54;;;;;;;8.82;6.40;;;;;;;;;;6248289;28;20099;-68
2022/05/06 15:23:56;;;;;;;11.07;6.13;;;;;;;;;;6248174;28;20083;-68
2022/05/06 15:26:59;;;;;;;7.63;6.40;;;;;;;;;;6242088;28;20049;-69
2022/05/06 15:30:01;;;;;;;8.10;6.50;;;;;;;;;;6252896;28;20045;-63
2022/05/06 15:33:02;;;;;;;7.25;6.55;;;;;;;;;;6252726;28;20056;-67
2022/05/06 15:36:05;;;;;;;8.10;7.10;;;;;;;;;;6254226;28;20049;-68
2022/05/06 15:39:07;;;;;;;8.43;6.93;;;;;;;;;;6249409;28;20046;-66
2022/05/06 15:42:10;;;;;;;7.43;6.25;;;;;;;;;;6249584;28;20104;-69
2022/05/06 15:45:12;;;;;;;7.85;6.82;;;;;;;;;;6246912;28;20061;-68
2022/05/06 15:48:14;;;;;;;8.35;6.93;;;;;;;;;;6243934;28;20053;-67
2022/05/06 15:51:18;;;;;;;8.43;6.55;;;;;;;;;;6244670;28;20320;-68
2022/05/06 15:54:19;;;;;;;7.68;6.55;;;;;;;;;;6240581;28;20069;-68
2022/05/06 15:57:22;;;;;;;8.30;7.00;;;;;;;;;;6248818;28;20046;-68
2022/05/06 16:00:24;;;;;;;8.50;7.60;;;;;;;;;;6250430;28;20324;-68
2022/05/06 16:03:26;;;;;;;7.85;7.05;;;;;;;;;;6249611;28;20096;-68
2022/05/06 16:06:27;;;;;;;9.85;7.10;;;;;;;;;;6247838;28;20053;-68
2022/05/06 16:09:29;;;;;;;8.88;7.68;;;;;;;;;;6244492;28;20056;-68
2022/05/06 16:12:32;;;;;;;8.95;7.07;;;;;;;;;;6246204;28;20057;-67
2022/05/06 16:15:34;;;;;;;8.63;7.07;;;;;;;;;;6244450;28;20092;-68
2022/05/06 16:18:35;;;;;;;9.45;7.43;;;;;;;;;;6248014;28;20053;-68
2022/05/06 16:21:37;;;;;;;8.38;7.47;;;;;;;;;;6242940;28;20066;-67
2022/05/06 16:24:38;;;;;;;8.05;6.70;;;;;;;;;;6249346;28;20072;-68
2022/05/06 16:27:41;;;;;;;10.70;7.13;;;;;;;;;;6244660;28;20046;-67
2022/05/06 16:30:44;;;;;;;9.23;7.18;;;;;;;;;;6244887;28;20119;-68
2022/05/06 16:37:24;;;;;;;8.48;7.57;;;;;;;;;;6243712;28;20073;-68
2022/05/06 16:40:27;;;;;;;9.35;7.65;;;;;;;;;;6242956;28;20088;-67
2022/05/06 16:43:30;;;;;;;8.83;7.37;;;;;;;;;;6245073;28;20324;-68
2022/05/06 16:46:32;;;;;;;9.07;7.55;;;;;;;;;;6246196;28;20491;-68
2022/05/06 16:49:36;;;;;;;7.63;6.82;;;;;;;;;;6249629;28;20050;-69
2022/05/06 16:52:37;;;;;;;;;;;;;;;;;;6248815;28;20045;-68
2022/05/06 16:55:39;;;;;;;6.95;6.22;;;;;;;;;;6515903;22;19931;-67
2022/05/06 16:58:43;;;;;;;7.10;5.95;;;;;;;;;;6551460;22;20024;-66
2022/05/06 17:01:45;;;;;;;8.32;6.35;;;;;;;;;;6216716;28;20054;-68
2022/05/06 17:04:46;;;;;;;6.82;5.85;;;;;;;;;;6218388;28;20100;-68
2022/05/06 17:07:48;;;;;;;7.45;6.32;;;;;;;;;;6461028;22;20331;-69
2022/05/06 17:10:50;;;;;;;7.43;6.60;;;;;;;;;;6546749;22;20060;-69
2022/05/06 17:13:53;;;;;;;7.80;6.82;;;;;;;;;;6223254;28;20050;-68
2022/05/06 17:16:54;;;;;;;9.80;7.20;;;;;;;;;;6223524;28;20061;-68
2022/05/06 17:19:56;;;;;;;10.65;7.50;;;;;;;;;;6223523;28;20092;-68
2022/05/06 17:22:58;;;;;;;9.43;7.50;;;;;;;;;;6225005;28;20224;-68
2022/05/06 17:25:59;;;;;;;11.98;9.05;;;;;;;;;;6225379;28;20057;-67
2022/05/06 17:29:02;;;;;;;12.27;9.55;;;;;;;;;;6221710;28;20054;-68
2022/05/06 17:32:05;;;;;;;10.93;8.93;;;;;;;;;;6227479;28;20049;-66
2022/05/06 17:35:07;;;;;;;9.85;7.78;;;;;;;;;;6225176;28;20046;-66
2022/05/06 17:38:09;;;;;;;12.63;8.18;;;;;;;;;;6232354;28;20058;-68
2022/05/06 17:41:11;;;;;;;8.75;7.07;;;;;;;;;;6231630;28;20114;-67
2022/05/06 17:44:14;;;;;;;11.15;6.78;;;;;;;;;;6236361;28;20049;-67
2022/05/06 17:47:15;;;;;;;10.73;7.43;;;;;;;;;;6230916;28;20042;-69
2022/05/06 17:50:19;;;;;;;10.15;7.75;;;;;;;;;;6229540;28;20092;-68
2022/05/06 17:53:22;;;;;;;10.05;8.05;;;;;;;;;;6226415;28;20068;-67
2022/05/06 17:56:24;;;;;;;8.85;7.05;;;;;;;;;;6227282;28;20058;-67
2022/05/06 17:59:27;;;;;;;10.40;6.80;;;;;;;;;;6223988;28;20211;-68
2022/05/06 18:02:27;;;;;;;8.25;7.07;;;;;;;;;;6227306;28;20234;-68
2022/05/06 18:05:29;;;;;;;8.73;6.85;;;;;;;;;;6225400;28;20054;-68
2022/05/06 18:08:31;;;;;;;8.85;7.35;;;;;;;;;;6231570;28;20050;-68
2022/05/06 18:11:32;;;;;;;9.35;7.97;;;;;;;;;;6232112;28;20340;-68
2022/05/06 18:14:35;;;;;;;9.48;7.72;;;;;;;;;;6226329;28;20167;-68
2022/05/06 18:17:37;;;;;;;9.60;8.10;;;;;;;;;;6230800;28;20049;-69
2022/05/06 18:20:38;;;;;;;10.32;7.30;;;;;;;;;;6227225;28;20045;-67
2022/05/06 18:23:40;;;;;;;9.45;7.43;;;;;;;;;;6225186;28;20328;-67
2022/05/06 18:26:46;;;;;;;9.43;7.32;;;;;;;;;;6224126;28;20125;-68
2022/05/06 18:29:50;;;;;;;9.05;7.43;;;;;;;;;;6223079;28;20042;-68
2022/05/06 18:36:11;;;;;;;8.90;6.78;;;;;;;;;;6227439;28;20121;-69
2022/05/06 18:39:13;;;;;;;9.50;7.50;;;;;;;;;;6226853;28;20041;-68
2022/05/06 18:42:18;;;;;;;9.10;7.38;;;;;;;;;;6230955;28;20081;-67
2022/05/06 18:45:21;;;;;;;9.00;7.05;;;;;;;;;;6225179;28;20054;-68
2022/05/06 18:48:23;;;;;;;11.53;7.90;;;;;;;;;;6224492;28;20092;-69
2022/05/06 18:51:24;;;;;;;11.27;7.80;;;;;;;;;;6226305;28;20100;-68
2022/05/06 18:54:27;;;;;;;9.68;7.90;;;;;;;;;;6225777;28;20050;-68